sensor_id;sensor_type;location;lat;lon;timestamp;temperature;humidity
19033;DHT22;9649;51.042;13.804;2023-04-22T00:04:29;9.50;1.00
19033;DHT22;9649;51.042;13.804;2023-04-22T00:09:32;9.60;1.00
19033;DHT22;9649;51.042;13.804;2023-04-22T00:14:36;9.70;1.00
19033;DHT22;9649;51.042;13.804;2023-04-22T00:19:39;9.70;1.00
19033;DHT22;9649;51.042;13.804;2023-04-22T00:24:42;9.70;1.00
19033;DHT22;9649;51.042;13.804;2023-04-22T00:29:46;9.60;1.00
19033;DHT22;9649;51.042;13.804;2023-04-22T00:34:49;9.50;1.00
19033;DHT22;9649;51.042;13.804;2023-04-22T00:39:51;9.50;1.00
19033;DHT22;9649;51.042;13.804;2023-04-22T00:44:56;9.30;1.00
19033;DHT22;9649;51.042;13.804;2023-04-22T00:49:59;9.10;1.00
19033;DHT22;9649;51.042;13.804;2023-04-22T00:55:02;9.10;1.00
19033;DHT22;9649;51.042;13.804;2023-04-22T01:00:07;9.00;1.00
19033;DHT22;9649;51.042;13.804;2023-04-22T01:05:11;8.70;1.00
19033;DHT22;9649;51.042;13.804;2023-04-22T01:10:14;8.50;1.00
19033;DHT22;9649;51.042;13.804;2023-04-22T01:15:18;8.60;1.00
19033;DHT22;9649;51.042;13.804;2023-04-22T01:20:21;8.30;13.00
19033;DHT22;9649;51.042;13.804;2023-04-22T01:25:26;8.00;56.00
19033;DHT22;9649;51.042;13.804;2023-04-22T01:30:29;7.90;99.90
19033;DHT22;9649;51.042;13.804;2023-04-22T01:35:31;8.10;59.30
19033;DHT22;9649;51.042;13.804;2023-04-22T01:40:39;8.20;22.80
19033;DHT22;9649;51.042;13.804;2023-04-22T01:45:41;8.20;10.80
19033;DHT22;9649;51.042;13.804;2023-04-22T01:50:44;8.20;26.90
19033;DHT22;9649;51.042;13.804;2023-04-22T01:55:48;8.10;45.20
19033;DHT22;9649;51.042;13.804;2023-04-22T02:00:51;8.10;40.10
19033;DHT22;9649;51.042;13.804;2023-04-22T02:05:54;8.00;54.60
19033;DHT22;9649;51.042;13.804;2023-04-22T02:10:58;8.00;40.90
19033;DHT22;9649;51.042;13.804;2023-04-22T02:16:01;7.90;43.20
19033;DHT22;9649;51.042;13.804;2023-04-22T02:21:04;7.90;30.70
19033;DHT22;9649;51.042;13.804;2023-04-22T02:26:08;7.80;30.80
19033;DHT22;9649;51.042;13.804;2023-04-22T02:31:11;7.80;25.60
19033;DHT22;9649;51.042;13.804;2023-04-22T02:36:14;7.80;18.30
19033;DHT22;9649;51.042;13.804;2023-04-22T02:41:18;7.70;23.10
19033;DHT22;9649;51.042;13.804;2023-04-22T02:46:20;8.00;1.00
19033;DHT22;9649;51.042;13.804;2023-04-22T02:51:23;8.00;1.00
19033;DHT22;9649;51.042;13.804;2023-04-22T02:56:28;8.00;1.00
19033;DHT22;9649;51.042;13.804;2023-04-22T03:01:32;7.80;1.00
19033;DHT22;9649;51.042;13.804;2023-04-22T03:06:34;7.90;1.00
19033;DHT22;9649;51.042;13.804;2023-04-22T03:11:38;7.90;1.00
19033;DHT22;9649;51.042;13.804;2023-04-22T03:16:41;7.80;1.00
19033;DHT22;9649;51.042;13.804;2023-04-22T03:21:44;7.50;1.00
19033;DHT22;9649;51.042;13.804;2023-04-22T03:26:48;7.40;17.70
19033;DHT22;9649;51.042;13.804;2023-04-22T03:31:51;7.30;41.10
19033;DHT22;9649;51.042;13.804;2023-04-22T03:36:53;7.20;64.40
19033;DHT22;9649;51.042;13.804;2023-04-22T03:41:57;7.10;94.70
19033;DHT22;9649;51.042;13.804;2023-04-22T03:47:00;7.00;99.90
19033;DHT22;9649;51.042;13.804;2023-04-22T03:52:03;7.10;99.90
19033;DHT22;9649;51.042;13.804;2023-04-22T03:57:07;7.20;49.00
19033;DHT22;9649;51.042;13.804;2023-04-22T04:02:10;7.20;68.80
19033;DHT22;9649;51.042;13.804;2023-04-22T04:07:13;7.10;70.20
19033;DHT22;9649;51.042;13.804;2023-04-22T04:12:17;7.30;12.90
19033;DHT22;9649;51.042;13.804;2023-04-22T04:17:20;7.10;53.60
19033;DHT22;9649;51.042;13.804;2023-04-22T04:22:26;6.80;99.90
19033;DHT22;9649;51.042;13.804;2023-04-22T04:27:31;6.50;99.90
19033;DHT22;9649;51.042;13.804;2023-04-22T04:32:34;6.50;99.90
19033;DHT22;9649;51.042;13.804;2023-04-22T04:37:37;6.90;99.90
19033;DHT22;9649;51.042;13.804;2023-04-22T04:42:42;7.10;99.90
19033;DHT22;9649;51.042;13.804;2023-04-22T04:47:44;7.20;78.70
19033;DHT22;9649;51.042;13.804;2023-04-22T04:52:47;7.40;8.80
19033;DHT22;9649;51.042;13.804;2023-04-22T04:57:51;7.70;1.00
19033;DHT22;9649;51.042;13.804;2023-04-22T05:02:54;7.90;1.00
19033;DHT22;9649;51.042;13.804;2023-04-22T05:07:57;8.10;1.00
19033;DHT22;9649;51.042;13.804;2023-04-22T05:13:01;8.20;1.00
19033;DHT22;9649;51.042;13.804;2023-04-22T05:18:05;8.50;1.00
19033;DHT22;9649;51.042;13.804;2023-04-22T05:23:07;8.70;1.00
19033;DHT22;9649;51.042;13.804;2023-04-22T05:28:12;9.00;1.00
19033;DHT22;9649;51.042;13.804;2023-04-22T05:33:14;9.30;99.90
19033;DHT22;9649;51.042;13.804;2023-04-22T05:38:17;9.60;1.00
19033;DHT22;9649;51.042;13.804;2023-04-22T05:43:21;9.80;1.00
19033;DHT22;9649;51.042;13.804;2023-04-22T05:48:24;10.10;1.00
19033;DHT22;9649;51.042;13.804;2023-04-22T05:53:26;10.50;1.00
19033;DHT22;9649;51.042;13.804;2023-04-22T05:58:30;10.90;1.00
19033;DHT22;9649;51.042;13.804;2023-04-22T06:03:33;11.30;1.00
19033;DHT22;9649;51.042;13.804;2023-04-22T06:08:36;11.60;1.00
19033;DHT22;9649;51.042;13.804;2023-04-22T06:13:40;12.00;1.00
19033;DHT22;9649;51.042;13.804;2023-04-22T06:18:42;12.40;80.60
19033;DHT22;9649;51.042;13.804;2023-04-22T06:23:45;12.80;99.90
19033;DHT22;9649;51.042;13.804;2023-04-22T06:28:49;13.10;1.00
19033;DHT22;9649;51.042;13.804;2023-04-22T06:33:52;13.40;1.00
19033;DHT22;9649;51.042;13.804;2023-04-22T06:38:55;13.60;99.90
19033;DHT22;9649;51.042;13.804;2023-04-22T06:43:59;13.90;1.00
19033;DHT22;9649;51.042;13.804;2023-04-22T06:49:01;14.10;1.00
19033;DHT22;9649;51.042;13.804;2023-04-22T06:54:04;14.40;1.00
19033;DHT22;9649;51.042;13.804;2023-04-22T06:59:09;14.60;1.00
19033;DHT22;9649;51.042;13.804;2023-04-22T07:04:12;14.80;99.90
19033;DHT22;9649;51.042;13.804;2023-04-22T07:09:15;15.10;99.90
19033;DHT22;9649;51.042;13.804;2023-04-22T07:14:19;15.30;99.90
19033;DHT22;9649;51.042;13.804;2023-04-22T07:19:22;15.40;99.90
19033;DHT22;9649;51.042;13.804;2023-04-22T07:24:26;15.50;99.90
19033;DHT22;9649;51.042;13.804;2023-04-22T07:29:30;15.60;26.60
19033;DHT22;9649;51.042;13.804;2023-04-22T07:34:33;15.70;1.00
19033;DHT22;9649;51.042;13.804;2023-04-22T07:39:35;16.00;1.00
19033;DHT22;9649;51.042;13.804;2023-04-22T07:44:40;16.20;1.00
19033;DHT22;9649;51.042;13.804;2023-04-22T07:49:42;16.40;1.00
19033;DHT22;9649;51.042;13.804;2023-04-22T07:54:46;16.50;1.00
19033;DHT22;9649;51.042;13.804;2023-04-22T07:59:50;16.60;1.00
19033;DHT22;9649;51.042;13.804;2023-04-22T08:04:53;17.00;1.00
19033;DHT22;9649;51.042;13.804;2023-04-22T08:09:56;17.30;1.00
19033;DHT22;9649;51.042;13.804;2023-04-22T08:15:00;19.30;1.00
19033;DHT22;9649;51.042;13.804;2023-04-22T08:20:04;22.40;1.00
19033;DHT22;9649;51.042;13.804;2023-04-22T08:25:08;23.20;1.00
19033;DHT22;9649;51.042;13.804;2023-04-22T08:30:18;24.70;1.00
19033;DHT22;9649;51.042;13.804;2023-04-22T08:35:21;23.70;1.00
19033;DHT22;9649;51.042;13.804;2023-04-22T08:40:32;23.30;1.00
19033;DHT22;9649;51.042;13.804;2023-04-22T08:46:01;23.90;1.00
19033;DHT22;9649;51.042;13.804;2023-04-22T08:51:32;26.60;1.00
19033;DHT22;9649;51.042;13.804;2023-04-22T08:56:50;26.70;99.90
19033;DHT22;9649;51.042;13.804;2023-04-22T09:02:27;27.90;99.90
19033;DHT22;9649;51.042;13.804;2023-04-22T09:07:47;29.20;99.90
19033;DHT22;9649;51.042;13.804;2023-04-22T09:13:00;28.20;99.90
19033;DHT22;9649;51.042;13.804;2023-04-22T09:18:15;29.70;99.90
19033;DHT22;9649;51.042;13.804;2023-04-22T09:24:21;30.30;99.90
19033;DHT22;9649;51.042;13.804;2023-04-22T09:29:21;31.30;99.90
19033;DHT22;9649;51.042;13.804;2023-04-22T09:36:05;30.80;99.90
19033;DHT22;9649;51.042;13.804;2023-04-22T09:40:41;31.50;99.90
19033;DHT22;9649;51.042;13.804;2023-04-22T09:46:17;31.20;99.90
19033;DHT22;9649;51.042;13.804;2023-04-22T09:51:41;31.90;99.90
19033;DHT22;9649;51.042;13.804;2023-04-22T09:58:21;31.60;99.90
19033;DHT22;9649;51.042;13.804;2023-04-22T10:03:01;32.70;99.90
19033;DHT22;9649;51.042;13.804;2023-04-22T10:08:28;33.20;99.90
19033;DHT22;9649;51.042;13.804;2023-04-22T10:13:50;32.40;99.90
19033;DHT22;9649;51.042;13.804;2023-04-22T10:19:57;34.00;99.90
19033;DHT22;9649;51.042;13.804;2023-04-22T10:25:29;34.00;99.90
19033;DHT22;9649;51.042;13.804;2023-04-22T10:30:46;35.00;99.90
19033;DHT22;9649;51.042;13.804;2023-04-22T10:36:32;34.60;99.90
19033;DHT22;9649;51.042;13.804;2023-04-22T10:53:54;33.20;99.90
19033;DHT22;9649;51.042;13.804;2023-04-22T10:59:53;31.70;99.90
19033;DHT22;9649;51.042;13.804;2023-04-22T11:05:38;31.50;99.90
19033;DHT22;9649;51.042;13.804;2023-04-22T11:11:40;32.50;99.90
19033;DHT22;9649;51.042;13.804;2023-04-22T11:16:56;32.50;99.90
19033;DHT22;9649;51.042;13.804;2023-04-22T11:24:03;32.40;99.90
19033;DHT22;9649;51.042;13.804;2023-04-22T11:29:09;34.10;99.90
19033;DHT22;9649;51.042;13.804;2023-04-22T11:35:01;35.30;99.90
19033;DHT22;9649;51.042;13.804;2023-04-22T11:47:08;34.70;99.90
19033;DHT22;9649;51.042;13.804;2023-04-22T11:53:25;34.80;99.90
19033;DHT22;9649;51.042;13.804;2023-04-22T12:25:20;34.50;99.90
19033;DHT22;9649;51.042;13.804;2023-04-22T12:30:23;32.70;99.90
19033;DHT22;9649;51.042;13.804;2023-04-22T12:35:26;31.20;99.90
19033;DHT22;9649;51.042;13.804;2023-04-22T12:40:30;34.10;99.90
19033;DHT22;9649;51.042;13.804;2023-04-22T12:45:33;32.70;99.90
19033;DHT22;9649;51.042;13.804;2023-04-22T12:50:35;32.10;99.90
19033;DHT22;9649;51.042;13.804;2023-04-22T12:55:40;31.10;99.90
19033;DHT22;9649;51.042;13.804;2023-04-22T13:00:45;32.60;99.90
19033;DHT22;9649;51.042;13.804;2023-04-22T13:05:48;33.10;99.90
19033;DHT22;9649;51.042;13.804;2023-04-22T13:10:52;33.60;99.90
19033;DHT22;9649;51.042;13.804;2023-04-22T13:15:55;33.20;99.90
19033;DHT22;9649;51.042;13.804;2023-04-22T13:20:58;32.20;99.90
19033;DHT22;9649;51.042;13.804;2023-04-22T13:26:02;30.90;99.90
19033;DHT22;9649;51.042;13.804;2023-04-22T13:31:04;31.80;99.90
19033;DHT22;9649;51.042;13.804;2023-04-22T13:36:07;31.40;99.90
19033;DHT22;9649;51.042;13.804;2023-04-22T13:41:11;30.60;99.90
19033;DHT22;9649;51.042;13.804;2023-04-22T13:46:14;30.40;99.90
19033;DHT22;9649;51.042;13.804;2023-04-22T13:51:17;31.20;99.90
19033;DHT22;9649;51.042;13.804;2023-04-22T13:56:22;33.40;99.90
19033;DHT22;9649;51.042;13.804;2023-04-22T14:01:26;32.40;99.90
19033;DHT22;9649;51.042;13.804;2023-04-22T14:06:28;31.60;99.90
19033;DHT22;9649;51.042;13.804;2023-04-22T14:11:32;29.10;99.90
19033;DHT22;9649;51.042;13.804;2023-04-22T14:16:35;30.70;99.90
19033;DHT22;9649;51.042;13.804;2023-04-22T14:21:38;28.50;99.90
19033;DHT22;9649;51.042;13.804;2023-04-22T14:26:42;29.90;99.90
19033;DHT22;9649;51.042;13.804;2023-04-22T14:31:46;30.30;99.90
19033;DHT22;9649;51.042;13.804;2023-04-22T14:36:50;29.80;99.90
19033;DHT22;9649;51.042;13.804;2023-04-22T14:41:54;29.30;99.90
19033;DHT22;9649;51.042;13.804;2023-04-22T14:46:58;29.00;99.90
19033;DHT22;9649;51.042;13.804;2023-04-22T14:52:01;30.10;99.90
19033;DHT22;9649;51.042;13.804;2023-04-22T14:57:05;29.40;99.90
19033;DHT22;9649;51.042;13.804;2023-04-22T15:02:11;29.00;99.90
19033;DHT22;9649;51.042;13.804;2023-04-22T15:07:16;29.60;99.90
19033;DHT22;9649;51.042;13.804;2023-04-22T15:12:20;29.50;99.90
19033;DHT22;9649;51.042;13.804;2023-04-22T15:17:23;28.60;99.90
19033;DHT22;9649;51.042;13.804;2023-04-22T15:22:26;29.00;99.90
19033;DHT22;9649;51.042;13.804;2023-04-22T15:27:30;28.90;99.90
19033;DHT22;9649;51.042;13.804;2023-04-22T15:32:33;27.20;99.90
19033;DHT22;9649;51.042;13.804;2023-04-22T15:37:36;25.70;99.90
19033;DHT22;9649;51.042;13.804;2023-04-22T15:42:40;25.80;99.90
19033;DHT22;9649;51.042;13.804;2023-04-22T15:47:43;25.40;99.90
19033;DHT22;9649;51.042;13.804;2023-04-22T15:52:45;24.80;99.90
19033;DHT22;9649;51.042;13.804;2023-04-22T15:57:50;24.30;99.90
19033;DHT22;9649;51.042;13.804;2023-04-22T16:02:52;23.80;99.90
19033;DHT22;9649;51.042;13.804;2023-04-22T16:07:56;23.50;99.90
19033;DHT22;9649;51.042;13.804;2023-04-22T16:13:00;23.10;99.90
19033;DHT22;9649;51.042;13.804;2023-04-22T16:18:03;22.90;99.90
19033;DHT22;9649;51.042;13.804;2023-04-22T16:23:07;22.90;99.90
19033;DHT22;9649;51.042;13.804;2023-04-22T16:28:11;23.00;99.90
19033;DHT22;9649;51.042;13.804;2023-04-22T16:33:15;23.00;99.90
19033;DHT22;9649;51.042;13.804;2023-04-22T16:38:18;23.40;99.90
19033;DHT22;9649;51.042;13.804;2023-04-22T16:43:22;23.30;99.90
19033;DHT22;9649;51.042;13.804;2023-04-22T16:48:24;23.20;99.90
19033;DHT22;9649;51.042;13.804;2023-04-22T16:53:27;23.30;99.90
19033;DHT22;9649;51.042;13.804;2023-04-22T16:58:31;23.10;99.90
19033;DHT22;9649;51.042;13.804;2023-04-22T17:03:34;23.30;99.90
19033;DHT22;9649;51.042;13.804;2023-04-22T17:08:37;23.50;99.90
19033;DHT22;9649;51.042;13.804;2023-04-22T17:13:41;23.20;99.90
19033;DHT22;9649;51.042;13.804;2023-04-22T17:18:43;23.40;99.90
19033;DHT22;9649;51.042;13.804;2023-04-22T17:23:47;22.90;99.90
19033;DHT22;9649;51.042;13.804;2023-04-22T17:28:51;22.40;99.90
19033;DHT22;9649;51.042;13.804;2023-04-22T17:33:54;22.10;99.90
19033;DHT22;9649;51.042;13.804;2023-04-22T17:38:57;21.80;99.90
19033;DHT22;9649;51.042;13.804;2023-04-22T17:44:01;21.60;99.90
19033;DHT22;9649;51.042;13.804;2023-04-22T17:49:07;21.20;99.90
19033;DHT22;9649;51.042;13.804;2023-04-22T17:54:10;21.00;99.90
19033;DHT22;9649;51.042;13.804;2023-04-22T17:59:14;20.70;99.90
19033;DHT22;9649;51.042;13.804;2023-04-22T18:04:16;20.50;99.90
19033;DHT22;9649;51.042;13.804;2023-04-22T18:09:19;20.00;99.90
19033;DHT22;9649;51.042;13.804;2023-04-22T18:14:24;19.60;99.90
19033;DHT22;9649;51.042;13.804;2023-04-22T18:19:27;19.40;1.00
19033;DHT22;9649;51.042;13.804;2023-04-22T18:24:36;19.40;1.00
19033;DHT22;9649;51.042;13.804;2023-04-22T18:29:46;19.30;1.00
19033;DHT22;9649;51.042;13.804;2023-04-22T18:34:54;19.20;1.00
19033;DHT22;9649;51.042;13.804;2023-04-22T18:40:13;18.90;1.00
19033;DHT22;9649;51.042;13.804;2023-04-22T18:45:24;18.80;1.00
19033;DHT22;9649;51.042;13.804;2023-04-22T18:50:34;18.70;1.00
19033;DHT22;9649;51.042;13.804;2023-04-22T18:55:40;18.60;1.00
19033;DHT22;9649;51.042;13.804;2023-04-22T19:00:51;18.50;1.00
19033;DHT22;9649;51.042;13.804;2023-04-22T19:06:12;18.10;1.00
19033;DHT22;9649;51.042;13.804;2023-04-22T19:11:17;18.10;1.00
19033;DHT22;9649;51.042;13.804;2023-04-22T19:16:21;17.80;2.90
19033;DHT22;9649;51.042;13.804;2023-04-22T19:21:27;17.70;99.90
19033;DHT22;9649;51.042;13.804;2023-04-22T19:26:30;17.60;99.90
19033;DHT22;9649;51.042;13.804;2023-04-22T19:31:34;17.60;99.90
19033;DHT22;9649;51.042;13.804;2023-04-22T19:36:37;17.60;99.90
19033;DHT22;9649;51.042;13.804;2023-04-22T19:41:39;17.60;99.90
19033;DHT22;9649;51.042;13.804;2023-04-22T19:46:44;17.50;99.90
19033;DHT22;9649;51.042;13.804;2023-04-22T19:51:47;17.40;99.90
19033;DHT22;9649;51.042;13.804;2023-04-22T19:56:50;17.30;99.90
19033;DHT22;9649;51.042;13.804;2023-04-22T20:01:56;17.20;99.90
19033;DHT22;9649;51.042;13.804;2023-04-22T20:06:59;17.00;99.90
19033;DHT22;9649;51.042;13.804;2023-04-22T20:12:04;17.00;99.90
19033;DHT22;9649;51.042;13.804;2023-04-22T20:17:08;17.00;99.90
19033;DHT22;9649;51.042;13.804;2023-04-22T20:22:15;16.90;99.90
19033;DHT22;9649;51.042;13.804;2023-04-22T20:27:18;16.80;99.90
19033;DHT22;9649;51.042;13.804;2023-04-22T20:32:22;16.70;99.90
19033;DHT22;9649;51.042;13.804;2023-04-22T20:37:25;16.70;99.90
19033;DHT22;9649;51.042;13.804;2023-04-22T20:42:29;16.50;99.90
19033;DHT22;9649;51.042;13.804;2023-04-22T20:47:34;16.60;99.90
19033;DHT22;9649;51.042;13.804;2023-04-22T20:52:37;16.50;99.90
19033;DHT22;9649;51.042;13.804;2023-04-22T20:57:40;16.40;99.90
19033;DHT22;9649;51.042;13.804;2023-04-22T21:02:45;16.20;1.00
19033;DHT22;9649;51.042;13.804;2023-04-22T21:07:50;16.10;1.00
19033;DHT22;9649;51.042;13.804;2023-04-22T21:12:53;15.90;1.00
19033;DHT22;9649;51.042;13.804;2023-04-22T21:17:58;15.80;11.90
19033;DHT22;9649;51.042;13.804;2023-04-22T21:23:03;15.70;99.90
19033;DHT22;9649;51.042;13.804;2023-04-22T21:28:08;15.70;99.90
19033;DHT22;9649;51.042;13.804;2023-04-22T21:33:12;15.70;99.90
19033;DHT22;9649;51.042;13.804;2023-04-22T21:38:15;15.60;99.90
19033;DHT22;9649;51.042;13.804;2023-04-22T21:43:18;15.40;1.00
19033;DHT22;9649;51.042;13.804;2023-04-22T21:48:22;15.40;1.00
19033;DHT22;9649;51.042;13.804;2023-04-22T21:53:24;15.30;1.00
19033;DHT22;9649;51.042;13.804;2023-04-22T21:58:27;15.20;1.00
19033;DHT22;9649;51.042;13.804;2023-04-22T22:03:31;15.30;1.00
19033;DHT22;9649;51.042;13.804;2023-04-22T22:08:34;15.30;1.00
19033;DHT22;9649;51.042;13.804;2023-04-22T22:13:37;15.30;99.90
19033;DHT22;9649;51.042;13.804;2023-04-22T22:18:41;15.30;99.90
19033;DHT22;9649;51.042;13.804;2023-04-22T22:23:46;15.10;1.00
19033;DHT22;9649;51.042;13.804;2023-04-22T22:28:48;15.10;1.00
19033;DHT22;9649;51.042;13.804;2023-04-22T22:33:52;15.20;1.00
19033;DHT22;9649;51.042;13.804;2023-04-22T22:38:55;15.50;99.90
19033;DHT22;9649;51.042;13.804;2023-04-22T22:43:58;15.70;1.00
19033;DHT22;9649;51.042;13.804;2023-04-22T22:49:02;15.90;1.00
19033;DHT22;9649;51.042;13.804;2023-04-22T22:54:05;15.90;1.00
19033;DHT22;9649;51.042;13.804;2023-04-22T22:59:08;16.00;1.00
19033;DHT22;9649;51.042;13.804;2023-04-22T23:04:12;16.10;1.00
19033;DHT22;9649;51.042;13.804;2023-04-22T23:09:16;16.20;1.00
19033;DHT22;9649;51.042;13.804;2023-04-22T23:14:20;16.20;1.00
19033;DHT22;9649;51.042;13.804;2023-04-22T23:19:24;16.20;1.00
19033;DHT22;9649;51.042;13.804;2023-04-22T23:24:28;16.20;1.00
19033;DHT22;9649;51.042;13.804;2023-04-22T23:29:31;16.20;1.00
19033;DHT22;9649;51.042;13.804;2023-04-22T23:34:38;16.20;1.00
19033;DHT22;9649;51.042;13.804;2023-04-22T23:39:43;16.20;1.00
19033;DHT22;9649;51.042;13.804;2023-04-22T23:44:46;16.30;1.00
19033;DHT22;9649;51.042;13.804;2023-04-22T23:49:50;16.30;1.00
19033;DHT22;9649;51.042;13.804;2023-04-22T23:54:53;16.30;1.00
19033;DHT22;9649;51.042;13.804;2023-04-22T23:59:56;16.40;1.00
